Aromas, California
Current Conditions -  °F | °C
As of 3:53 PM on Sunday 23 Nov 2014 (Local Time) from KWVI Reporting Station
Clear Clear  
Wind Chill: 19°   Ceiling: Unl
Heat Index: 19°   Visibility: 10mi
Dew Point:   Wind: 5mph
Humidity: 48%   Direction: 80°E
Pressure: 30.25"   Gusts: NA
Location:  36.88°N, 121.64°W
Report Text: KWVI 232353Z AUTO 08004KT 10SM CLR 19/08 A3025 RMK AO2 SLP244 T01890078 10206 20139 56006
Loading
Personal Weather Stations






























Interactive Weather Map New forecast layout! Learn more

10-Day Weather Forecast

Advertisements
Track Severe Weather on mobile